createdAt,value
2023-05-22T00:00:14.759Z,18.53
2023-05-22T00:02:43.430Z,18.49
2023-05-22T00:05:14.268Z,18.47
2023-05-22T00:07:43.167Z,18.44
2023-05-22T00:10:10.767Z,18.53
2023-05-22T00:12:37.394Z,18.48
2023-05-22T00:15:05.371Z,18.41
2023-05-22T00:17:31.924Z,18.39
2023-05-22T00:20:07.317Z,18.36
2023-05-22T00:22:43.149Z,18.49
2023-05-22T00:25:11.501Z,18.54
2023-05-22T00:27:38.289Z,18.52
2023-05-22T00:30:05.223Z,18.50
2023-05-22T00:32:31.810Z,18.46
2023-05-22T00:34:58.515Z,18.44
2023-05-22T00:37:28.491Z,18.10
2023-05-22T00:39:55.042Z,18.39
2023-05-22T00:42:22.199Z,18.40
2023-05-22T00:44:51.524Z,18.50
2023-05-22T00:47:18.988Z,18.22
2023-05-22T00:49:48.172Z,18.62
2023-05-22T00:52:14.686Z,18.70
2023-05-22T00:54:49.115Z,18.30
2023-05-22T00:57:18.965Z,18.59
2023-05-22T00:59:45.533Z,18.61
2023-05-22T01:02:16.745Z,18.58
2023-05-22T01:04:51.049Z,18.52
2023-05-22T01:07:17.992Z,18.44
2023-05-22T01:09:44.641Z,18.42
2023-05-22T01:12:19.606Z,18.37
2023-05-22T01:14:51.291Z,18.38
2023-05-22T01:17:34.803Z,18.02
2023-05-22T01:20:20.320Z,18.34
2023-05-22T01:23:02.921Z,18.34
2023-05-22T01:25:40.304Z,18.39
2023-05-22T01:28:36.713Z,18.48
2023-05-22T01:31:08.273Z,18.51
2023-05-22T01:33:42.809Z,18.54
2023-05-22T01:36:10.378Z,18.61
2023-05-22T01:38:40.351Z,18.61
2023-05-22T01:41:07.613Z,18.70
2023-05-22T01:43:34.918Z,18.69
2023-05-22T01:46:01.988Z,18.67
2023-05-22T01:48:28.607Z,18.69
2023-05-22T01:51:01.063Z,18.70
2023-05-22T01:53:36.612Z,18.69
2023-05-22T01:56:14.714Z,18.71
2023-05-22T01:58:47.382Z,18.69
2023-05-22T02:01:21.273Z,18.40
2023-05-22T02:03:51.892Z,18.71
2023-05-22T02:06:19.479Z,18.77
2023-05-22T02:08:46.074Z,18.83
2023-05-22T02:11:12.736Z,18.84
2023-05-22T02:13:45.292Z,18.76
2023-05-22T02:16:12.572Z,18.78
2023-05-22T02:18:42.043Z,18.79
2023-05-22T02:21:08.862Z,18.85
2023-05-22T02:23:35.898Z,18.79
2023-05-22T02:26:06.964Z,18.78
2023-05-22T02:28:33.599Z,18.75
2023-05-22T02:31:05.447Z,18.45
2023-05-22T02:33:32.075Z,18.76
2023-05-22T02:36:05.529Z,18.45
2023-05-22T02:38:32.194Z,18.74
2023-05-22T02:40:59.260Z,18.87
2023-05-22T02:43:25.875Z,18.75
2023-05-22T02:45:52.631Z,18.69
2023-05-22T02:48:19.370Z,18.69
2023-05-22T02:50:48.534Z,18.71
2023-05-22T02:53:17.236Z,18.73
2023-05-22T02:55:43.887Z,18.63
2023-05-22T02:58:11.791Z,18.55
2023-05-22T03:00:41.977Z,18.54
2023-05-22T03:03:08.859Z,18.57
2023-05-22T03:05:35.450Z,18.52
2023-05-22T03:08:02.115Z,18.70
2023-05-22T03:10:28.932Z,18.69
2023-05-22T03:12:55.524Z,18.60
2023-05-22T03:15:22.018Z,18.47
2023-05-22T03:18:02.019Z,18.44
2023-05-22T03:20:31.991Z,18.33
2023-05-22T03:22:59.140Z,18.32
2023-05-22T03:25:29.302Z,18.42
2023-05-22T03:27:56.459Z,18.44
2023-05-22T03:30:29.972Z,18.40
2023-05-22T03:32:56.604Z,18.40
2023-05-22T03:35:24.961Z,18.35
2023-05-22T03:37:51.514Z,18.34
2023-05-22T03:40:18.034Z,18.45
2023-05-22T03:42:44.573Z,18.31
2023-05-22T03:45:15.568Z,18.27
2023-05-22T03:47:42.381Z,18.23
2023-05-22T03:50:15.808Z,18.25
2023-05-22T03:52:42.314Z,18.18
2023-05-22T03:55:09.120Z,18.24
2023-05-22T03:57:35.845Z,18.19
2023-05-22T04:00:09.904Z,18.13
2023-05-22T04:02:39.013Z,18.10
2023-05-22T04:05:07.187Z,18.13
2023-05-22T04:07:37.842Z,18.12
2023-05-22T04:10:04.976Z,18.10
2023-05-22T04:12:31.959Z,18.22
2023-05-22T04:15:07.619Z,18.15
2023-05-22T04:17:40.443Z,18.18
2023-05-22T04:20:07.940Z,18.14
2023-05-22T04:22:34.614Z,18.24
2023-05-22T04:25:01.442Z,18.18
2023-05-22T04:27:30.380Z,18.13
2023-05-22T04:29:57.024Z,18.12
2023-05-22T04:32:27.014Z,18.21
2023-05-22T04:34:53.596Z,18.15
2023-05-22T04:37:23.619Z,17.77
2023-05-22T04:39:53.738Z,18.14
2023-05-22T04:42:20.590Z,18.23
2023-05-22T04:44:49.548Z,18.20
2023-05-22T04:47:17.718Z,17.95
2023-05-22T04:49:45.731Z,18.35
2023-05-22T04:52:12.319Z,18.36
2023-05-22T04:54:39.036Z,18.39
2023-05-22T04:57:06.057Z,18.35
2023-05-22T04:59:33.843Z,18.31
2023-05-22T05:02:00.592Z,18.43
2023-05-22T05:04:27.084Z,18.39
2023-05-22T05:06:53.788Z,18.38
2023-05-22T05:09:21.087Z,18.21
2023-05-22T05:11:47.701Z,18.58
2023-05-22T05:14:16.521Z,18.33
2023-05-22T05:16:46.985Z,18.69
2023-05-22T05:19:14.118Z,18.70
2023-05-22T05:21:48.479Z,18.78
2023-05-22T05:24:18.350Z,18.79
2023-05-22T05:26:44.995Z,18.74
2023-05-22T05:29:12.980Z,18.73
2023-05-22T05:31:39.737Z,18.78
2023-05-22T05:34:06.359Z,18.85
2023-05-22T05:36:32.901Z,18.90
2023-05-22T05:39:04.076Z,19.06
2023-05-22T05:41:30.757Z,19.04
2023-05-22T05:44:00.094Z,19.09
2023-05-22T05:46:26.888Z,19.02
2023-05-22T05:48:53.639Z,19.00
2023-05-22T05:51:23.597Z,19.00
2023-05-22T05:53:51.673Z,19.04
2023-05-22T05:56:18.309Z,19.14
2023-05-22T05:58:44.935Z,19.15
2023-05-22T06:01:20.185Z,19.01
2023-05-22T06:03:47.557Z,19.17
2023-05-22T06:06:15.481Z,19.16
2023-05-22T06:08:42.442Z,19.19
2023-05-22T06:11:15.641Z,18.81
2023-05-22T06:13:49.459Z,19.23
2023-05-22T06:16:16.759Z,19.40
2023-05-22T06:18:49.744Z,19.49
2023-05-22T06:21:22.233Z,19.55
2023-05-22T06:23:49.885Z,19.66
2023-05-22T06:26:21.646Z,19.72
2023-05-22T06:28:48.390Z,19.78
2023-05-22T06:31:19.632Z,19.27
2023-05-22T06:33:51.506Z,19.69
2023-05-22T06:36:19.155Z,19.84
2023-05-22T06:38:51.754Z,19.96
2023-05-22T06:41:18.653Z,19.93
2023-05-22T06:43:46.376Z,20.03
2023-05-22T06:46:13.368Z,19.99
2023-05-22T06:48:41.059Z,20.13
2023-05-22T06:51:15.175Z,19.74
2023-05-22T06:53:49.826Z,20.24
2023-05-22T06:56:16.649Z,20.22
2023-05-22T06:58:43.196Z,20.22
2023-05-22T07:01:09.725Z,20.26
2023-05-22T07:03:36.900Z,20.35
2023-05-22T07:06:03.750Z,20.40
2023-05-22T07:08:30.758Z,20.32
2023-05-22T07:10:57.566Z,20.35
2023-05-22T07:13:35.427Z,20.35
2023-05-22T07:16:03.331Z,20.45
2023-05-22T07:18:30.110Z,20.42
2023-05-22T07:20:56.601Z,20.37
2023-05-22T07:23:24.414Z,20.47
2023-05-22T07:25:53.561Z,20.48
2023-05-22T07:28:20.232Z,20.53
2023-05-22T07:30:46.849Z,20.65
2023-05-22T07:33:14.335Z,20.66
2023-05-22T07:35:45.755Z,20.70
2023-05-22T07:38:12.563Z,20.72
2023-05-22T07:40:41.923Z,20.85
2023-05-22T07:43:11.670Z,20.93
2023-05-22T07:45:39.760Z,21.02
2023-05-22T07:48:06.749Z,21.02
2023-05-22T07:50:35.511Z,21.16
2023-05-22T07:53:06.601Z,21.23
2023-05-22T07:55:33.842Z,21.27
2023-05-22T07:58:06.940Z,21.28
2023-05-22T08:00:39.620Z,21.25
2023-05-22T08:03:07.934Z,21.27
2023-05-22T08:05:34.646Z,21.36
2023-05-22T08:08:06.259Z,21.07
2023-05-22T08:10:46.628Z,21.15
2023-05-22T08:13:15.839Z,21.47
2023-05-22T08:15:42.549Z,21.48
2023-05-22T08:18:09.283Z,21.53
2023-05-22T08:20:38.949Z,21.76
2023-05-22T08:23:05.923Z,21.78
2023-05-22T08:25:32.758Z,21.74
2023-05-22T08:27:59.354Z,21.86
2023-05-22T08:30:30.716Z,22.03
2023-05-22T08:33:01.977Z,21.95
2023-05-22T08:35:29.317Z,22.03
2023-05-22T08:38:00.533Z,21.83
2023-05-22T08:40:40.804Z,22.08
2023-05-22T08:43:12.893Z,22.10
2023-05-22T08:45:42.708Z,22.18
2023-05-22T08:48:11.719Z,22.27
2023-05-22T08:50:43.414Z,22.24
2023-05-22T08:53:12.640Z,22.39
2023-05-22T08:55:39.615Z,22.55
2023-05-22T08:58:06.577Z,22.59
2023-05-22T09:00:35.413Z,22.69
2023-05-22T09:03:02.668Z,22.68
2023-05-22T09:05:30.628Z,22.69
2023-05-22T09:08:00.515Z,22.92
2023-05-22T09:10:32.178Z,22.90
2023-05-22T09:13:01.875Z,22.99
2023-05-22T09:15:30.276Z,23.00
2023-05-22T09:17:57.010Z,23.09
2023-05-22T09:20:25.329Z,23.08
2023-05-22T09:22:52.728Z,23.14
2023-05-22T09:25:20.148Z,23.25
2023-05-22T09:27:50.671Z,23.01
2023-05-22T09:30:18.190Z,23.36
2023-05-22T09:32:46.948Z,23.49
2023-05-22T09:35:16.860Z,23.54
2023-05-22T09:37:45.275Z,23.63
2023-05-22T09:40:15.776Z,23.70
2023-05-22T09:42:47.341Z,23.78
2023-05-22T09:45:17.008Z,23.71
2023-05-22T09:47:48.746Z,23.95
2023-05-22T09:50:15.455Z,23.95
2023-05-22T09:52:44.794Z,24.07
2023-05-22T09:55:17.698Z,24.17
2023-05-22T09:57:48.225Z,24.41
2023-05-22T10:00:24.296Z,24.45
2023-05-22T10:02:54.083Z,24.46
2023-05-22T10:05:23.594Z,24.50
2023-05-22T10:07:55.328Z,24.72
2023-05-22T10:10:23.322Z,24.82
2023-05-22T10:12:49.876Z,25.00
2023-05-22T10:15:17.682Z,25.00
2023-05-22T10:17:47.754Z,25.12
2023-05-22T10:20:16.399Z,25.28
2023-05-22T10:22:51.020Z,25.48
2023-05-22T10:25:23.066Z,25.61
2023-05-22T10:27:52.247Z,25.72
2023-05-22T10:30:20.253Z,25.94
2023-05-22T10:32:50.440Z,25.81
2023-05-22T10:35:17.060Z,25.85
2023-05-22T10:37:51.535Z,26.00
2023-05-22T10:40:22.281Z,26.07
2023-05-22T10:42:50.154Z,26.17
2023-05-22T10:45:16.840Z,26.40
2023-05-22T10:47:46.104Z,26.54
2023-05-22T10:50:13.350Z,26.64
2023-05-22T10:52:40.578Z,26.72
2023-05-22T10:55:16.041Z,26.47
2023-05-22T10:57:43.142Z,26.88
2023-05-22T11:00:19.991Z,27.07
2023-05-22T11:02:51.582Z,26.98
2023-05-22T11:05:22.421Z,27.38
2023-05-22T11:07:49.297Z,27.47
2023-05-22T11:10:37.245Z,27.37
2023-05-22T11:13:17.914Z,27.03
2023-05-22T11:15:48.837Z,27.38
2023-05-22T11:18:16.986Z,27.55
2023-05-22T11:20:44.483Z,27.65
2023-05-22T11:23:11.418Z,27.94
2023-05-22T11:25:43.270Z,27.94
2023-05-22T11:28:11.660Z,28.09
2023-05-22T11:30:39.053Z,28.18
2023-05-22T11:33:06.875Z,28.20
2023-05-22T11:35:34.189Z,28.28
2023-05-22T11:38:03.841Z,28.32
2023-05-22T11:40:30.646Z,28.52
2023-05-22T11:42:57.362Z,28.58
2023-05-22T11:45:24.293Z,28.68
2023-05-22T11:47:51.204Z,28.49
2023-05-22T11:50:29.162Z,28.85
2023-05-22T11:53:09.457Z,29.07
2023-05-22T11:55:36.035Z,29.29
2023-05-22T11:58:03.053Z,29.46
2023-05-22T12:00:30.772Z,29.54
2023-05-22T12:03:00.606Z,29.66
2023-05-22T12:05:31.796Z,29.79
2023-05-22T12:08:00.636Z,29.91
2023-05-22T12:10:29.230Z,30.04
2023-05-22T12:12:56.567Z,30.09
2023-05-22T12:15:24.532Z,30.27
2023-05-22T12:17:56.310Z,30.50
2023-05-22T12:20:23.125Z,30.57
2023-05-22T12:22:49.818Z,30.66
2023-05-22T12:25:17.731Z,30.87
2023-05-22T12:27:45.740Z,30.53
2023-05-22T12:30:16.241Z,30.24
2023-05-22T12:32:50.371Z,29.99
2023-05-22T12:35:26.143Z,30.10
2023-05-22T12:37:52.924Z,30.47
2023-05-22T12:40:27.085Z,30.79
2023-05-22T12:42:54.192Z,30.92
2023-05-22T12:45:25.116Z,31.14
2023-05-22T12:47:54.251Z,31.28
2023-05-22T12:50:20.951Z,31.45
2023-05-22T12:52:47.709Z,31.62
2023-05-22T12:55:21.917Z,31.38
2023-05-22T12:57:49.331Z,31.96
2023-05-22T13:00:16.093Z,32.09
2023-05-22T13:02:50.679Z,32.16
2023-05-22T13:05:17.925Z,32.28
2023-05-22T13:07:47.070Z,32.40
2023-05-22T13:10:16.189Z,32.61
2023-05-22T13:12:44.833Z,32.77
2023-05-22T13:15:13.950Z,32.89
2023-05-22T13:17:40.711Z,32.85
2023-05-22T13:20:08.151Z,32.97
2023-05-22T13:22:37.045Z,32.86
2023-05-22T13:25:03.855Z,32.95
2023-05-22T13:27:34.030Z,33.00
2023-05-22T13:30:02.791Z,33.30
2023-05-22T13:32:29.463Z,33.42
2023-05-22T13:34:58.415Z,33.67
2023-05-22T13:37:27.901Z,33.77
2023-05-22T13:40:01.081Z,33.92
2023-05-22T13:42:28.428Z,34.01
2023-05-22T13:44:55.215Z,33.85
2023-05-22T13:47:23.216Z,33.97
2023-05-22T13:49:58.934Z,34.04
2023-05-22T13:52:26.573Z,34.07
2023-05-22T13:54:54.665Z,34.07
2023-05-22T13:57:21.185Z,34.04
2023-05-22T13:59:47.743Z,33.86
2023-05-22T14:02:14.392Z,33.58
2023-05-22T14:04:41.107Z,32.90
2023-05-22T14:07:07.674Z,32.47
2023-05-22T14:09:34.219Z,32.14
2023-05-22T14:12:00.818Z,31.71
2023-05-22T14:14:27.640Z,31.44
2023-05-22T14:16:56.394Z,31.22
2023-05-22T14:19:26.119Z,30.76
2023-05-22T14:21:57.904Z,30.91
2023-05-22T14:24:28.539Z,30.59
2023-05-22T14:26:58.122Z,30.71
2023-05-22T14:29:25.678Z,30.33
2023-05-22T14:31:55.079Z,30.23
2023-05-22T14:34:21.566Z,30.14
2023-05-22T14:36:48.518Z,29.84
2023-05-22T14:39:18.126Z,29.86
2023-05-22T14:41:44.837Z,29.66
2023-05-22T14:44:14.286Z,29.50
2023-05-22T14:46:44.019Z,29.43
2023-05-22T14:49:15.743Z,28.96
2023-05-22T14:51:48.207Z,29.38
2023-05-22T14:54:15.885Z,29.20
2023-05-22T14:56:48.681Z,29.03
2023-05-22T14:59:15.577Z,28.90
2023-05-22T15:01:42.200Z,28.85
2023-05-22T15:04:09.201Z,28.88
2023-05-22T15:06:36.377Z,28.77
2023-05-22T15:09:03.067Z,28.85
2023-05-22T15:11:29.762Z,28.81
2023-05-22T15:13:56.605Z,28.75
2023-05-22T15:16:27.787Z,28.63
2023-05-22T15:18:55.271Z,28.63
2023-05-22T15:21:22.580Z,28.73
2023-05-22T15:23:49.551Z,28.74
2023-05-22T15:26:16.425Z,28.71
2023-05-22T15:28:43.028Z,28.66
2023-05-22T15:31:09.878Z,28.57
2023-05-22T15:33:36.530Z,28.57
2023-05-22T15:36:06.115Z,28.57
2023-05-22T15:38:33.330Z,28.59
2023-05-22T15:40:59.893Z,28.67
2023-05-22T15:43:26.836Z,28.24
2023-05-22T15:45:53.706Z,28.53
2023-05-22T15:48:20.649Z,28.25
2023-05-22T15:50:47.280Z,28.11
2023-05-22T15:53:14.966Z,28.13
2023-05-22T15:55:41.939Z,28.39
2023-05-22T15:58:08.772Z,28.95
2023-05-22T16:00:38.732Z,29.55
2023-05-22T16:03:12.148Z,30.19
2023-05-22T16:05:40.185Z,30.79
2023-05-22T16:08:07.393Z,31.16
2023-05-22T16:10:34.112Z,31.62
2023-05-22T16:13:00.853Z,32.04
2023-05-22T16:15:27.395Z,32.39
2023-05-22T16:17:54.726Z,32.51
2023-05-22T16:20:22.614Z,32.12
2023-05-22T16:22:49.293Z,31.73
2023-05-22T16:25:16.852Z,31.30
2023-05-22T16:27:43.597Z,30.88
2023-05-22T16:30:16.458Z,30.50
2023-05-22T16:32:50.299Z,30.03
2023-05-22T16:35:17.033Z,29.95
2023-05-22T16:37:43.646Z,29.64
2023-05-22T16:40:10.418Z,29.03
2023-05-22T16:42:45.289Z,28.62
2023-05-22T16:45:12.012Z,28.91
2023-05-22T16:47:48.608Z,28.30
2023-05-22T16:50:15.180Z,28.95
2023-05-22T16:52:41.733Z,28.69
2023-05-22T16:55:08.664Z,28.47
2023-05-22T16:57:35.211Z,28.43
2023-05-22T17:02:53.029Z,28.31
2023-05-22T17:05:23.094Z,27.86
2023-05-22T17:07:49.789Z,28.05
2023-05-22T17:10:18.980Z,28.03
2023-05-22T17:12:46.275Z,28.01
2023-05-22T17:15:13.051Z,27.95
2023-05-22T17:17:39.925Z,27.92
2023-05-22T17:20:07.452Z,27.90
2023-05-22T17:22:36.088Z,27.78
2023-05-22T17:25:02.723Z,27.75
2023-05-22T17:27:36.482Z,27.73
2023-05-22T17:30:04.743Z,27.64
2023-05-22T17:32:31.526Z,27.66
2023-05-22T17:34:58.610Z,27.56
2023-05-22T17:37:25.203Z,27.48
2023-05-22T17:39:53.365Z,27.41
2023-05-22T17:42:20.080Z,27.43
2023-05-22T17:44:47.081Z,27.59
2023-05-22T17:47:17.840Z,27.61
2023-05-22T17:49:45.129Z,27.72
2023-05-22T17:52:13.431Z,27.79
2023-05-22T17:54:40.126Z,27.83
2023-05-22T17:57:06.785Z,27.85
2023-05-22T17:59:36.356Z,27.80
2023-05-22T18:02:04.729Z,27.79
2023-05-22T18:04:31.411Z,27.67
2023-05-22T18:06:58.131Z,27.56
2023-05-22T18:09:34.565Z,27.13
2023-05-22T18:12:03.942Z,27.44
2023-05-22T18:14:32.080Z,27.15
2023-05-22T18:17:00.847Z,26.98
2023-05-22T18:19:29.317Z,26.92
2023-05-22T18:21:56.354Z,26.88
2023-05-22T18:24:26.233Z,26.73
2023-05-22T18:26:53.005Z,26.58
2023-05-22T18:29:19.685Z,26.48
2023-05-22T18:31:46.318Z,26.33
2023-05-22T18:34:14.344Z,26.24
2023-05-22T18:36:47.795Z,26.14
2023-05-22T18:39:15.113Z,26.08
2023-05-22T18:41:43.860Z,26.01
2023-05-22T18:44:13.560Z,25.96
2023-05-22T18:46:50.960Z,25.90
2023-05-22T18:49:37.121Z,25.84
2023-05-22T18:52:22.225Z,25.76
2023-05-22T18:55:00.765Z,25.68
2023-05-22T18:57:31.886Z,25.55
2023-05-22T19:00:01.697Z,25.50
2023-05-22T19:02:39.701Z,25.42
2023-05-22T19:05:07.484Z,25.37
2023-05-22T19:07:40.230Z,25.30
2023-05-22T19:10:08.327Z,25.23
2023-05-22T19:12:35.389Z,25.19
2023-05-22T19:15:02.872Z,25.11
2023-05-22T19:17:48.175Z,25.02
2023-05-22T19:20:30.538Z,24.97
2023-05-22T19:23:23.677Z,24.86
2023-05-22T19:25:54.198Z,24.76
2023-05-22T19:28:28.351Z,24.65
2023-05-22T19:31:07.753Z,24.60
2023-05-22T19:33:34.541Z,24.56
2023-05-22T19:36:02.487Z,24.49
2023-05-22T19:38:43.417Z,24.43
2023-05-22T19:41:12.507Z,24.36
2023-05-22T19:43:51.781Z,24.25
2023-05-22T19:46:25.580Z,24.19
2023-05-22T19:48:52.626Z,24.12
2023-05-22T19:51:31.729Z,24.03
2023-05-22T19:54:01.989Z,23.99
2023-05-22T19:56:43.515Z,23.98
2023-05-22T19:59:12.735Z,23.92
2023-05-22T20:01:53.524Z,23.85
2023-05-22T20:04:24.206Z,23.79
2023-05-22T20:06:53.588Z,23.74
2023-05-22T20:09:21.382Z,23.67
2023-05-22T20:11:49.376Z,23.62
2023-05-22T20:14:16.352Z,23.57
2023-05-22T20:16:43.140Z,23.53
2023-05-22T20:19:10.502Z,23.51
2023-05-22T20:21:37.647Z,23.45
2023-05-22T20:24:06.326Z,23.44
2023-05-22T20:26:37.223Z,23.41
2023-05-22T20:29:04.143Z,23.38
2023-05-22T20:34:15.926Z,23.37
2023-05-22T20:36:47.919Z,23.28
2023-05-22T20:39:24.599Z,23.16
2023-05-22T20:41:54.921Z,23.04
2023-05-22T20:44:27.184Z,23.00
2023-05-22T20:47:05.926Z,22.67
2023-05-22T20:49:45.629Z,22.95
2023-05-22T20:52:17.989Z,23.01
2023-05-22T20:55:01.773Z,23.02
2023-05-22T20:57:31.503Z,23.01
2023-05-22T21:00:05.983Z,22.99
2023-05-22T21:02:33.406Z,22.94
2023-05-22T21:05:00.842Z,22.55
2023-05-22T21:07:30.389Z,22.73
2023-05-22T21:09:57.227Z,22.67
2023-05-22T21:12:23.852Z,22.68
2023-05-22T21:14:52.573Z,22.79
2023-05-22T21:17:19.237Z,22.82
2023-05-22T21:19:46.404Z,22.80
2023-05-22T21:22:12.954Z,22.70
2023-05-22T21:24:42.070Z,22.61
2023-05-22T21:27:09.262Z,22.57
2023-05-22T21:29:35.816Z,22.61
2023-05-22T21:32:02.438Z,22.50
2023-05-22T21:34:29.005Z,22.37
2023-05-22T21:36:57.230Z,22.31
2023-05-22T21:39:23.827Z,22.21
2023-05-22T21:41:50.438Z,22.18
2023-05-22T21:44:25.345Z,21.90
2023-05-22T21:46:51.881Z,22.16
2023-05-22T21:49:22.216Z,22.10
2023-05-22T21:51:51.200Z,22.15
2023-05-22T21:54:17.780Z,22.11
2023-05-22T21:56:44.318Z,22.11
2023-05-22T21:59:11.610Z,22.15
2023-05-22T22:01:39.224Z,22.10
2023-05-22T22:04:08.247Z,21.96
2023-05-22T22:06:42.551Z,21.94
2023-05-22T22:09:09.327Z,21.89
2023-05-22T22:11:46.765Z,21.83
2023-05-22T22:14:13.914Z,21.81
2023-05-22T22:16:40.785Z,21.76
2023-05-22T22:19:08.148Z,21.71
2023-05-22T22:21:35.103Z,21.67
2023-05-22T22:24:07.235Z,21.66
2023-05-22T22:26:36.905Z,21.68
2023-05-22T22:29:03.549Z,21.67
2023-05-22T22:31:36.694Z,21.62
2023-05-22T22:34:05.658Z,21.58
2023-05-22T22:36:35.647Z,21.50
2023-05-22T22:39:02.282Z,21.42
2023-05-22T22:41:30.528Z,21.42
2023-05-22T22:43:57.815Z,21.39
2023-05-22T22:46:24.771Z,21.39
2023-05-22T22:48:51.495Z,21.39
2023-05-22T22:51:18.745Z,21.31
2023-05-22T22:53:45.366Z,21.25
2023-05-22T22:56:12.588Z,21.23
2023-05-22T22:58:39.301Z,21.16
2023-05-22T23:01:09.846Z,21.10
2023-05-22T23:03:37.000Z,21.10
2023-05-22T23:06:03.724Z,21.07
2023-05-22T23:08:30.686Z,21.06
2023-05-22T23:11:01.251Z,20.74
2023-05-22T23:13:34.294Z,21.00
2023-05-22T23:16:01.051Z,20.94
2023-05-22T23:18:27.974Z,20.89
2023-05-22T23:20:54.626Z,20.87
2023-05-22T23:23:21.267Z,20.87
2023-05-22T23:25:48.082Z,20.82
2023-05-22T23:28:14.816Z,20.80
2023-05-22T23:30:41.396Z,20.76
2023-05-22T23:33:08.001Z,20.75
2023-05-22T23:35:34.661Z,20.68
2023-05-22T23:38:01.637Z,20.67
2023-05-22T23:40:31.333Z,20.66
2023-05-22T23:43:02.200Z,20.62
2023-05-22T23:45:28.799Z,20.63
2023-05-22T23:48:01.549Z,20.62
2023-05-22T23:50:28.176Z,20.55
2023-05-22T23:55:39.748Z,20.82
2023-05-22T23:58:06.554Z,20.76
